Tuesday, January 16, 2018, 6:52 AM EST
Back to Local

KPNE, N.e. Philadelphia Airport

Location: Philadelphia, PA, United States Lat: 40.083
Local Time: 6:52 AM EST (11:52 GMT) Lon: -75.017
Time Zone: US/Eastern Elev: 121 ft

Show me the last for .
Show Coded

Time T Td Feel RH Dir Speed Gust Alt SLP Vis Weather Sky Remarks
2018-01-16 05:54 30 23 25 74 60° 5 - 30.50 30.50 10 OVC021 None
2018-01-16 05:36 29 23 23 78 90° 6 - 30.49 - 10 BKN022 OVC032 None
2018-01-16 04:54 29 23 23 78 80° 6 - 30.48 30.48 10 OVC034 None
2018-01-16 04:13 29 23 20 78 70° 9 - 30.48 - 10 SCT018 OVC035 None
2018-01-16 03:54 30 23 24 74 60° 6 - 30.50 30.50 10 OVC018 None
2018-01-16 02:54 30 23 24 74 40° 6 - 30.50 30.50 10 OVC017 None
2018-01-16 01:54 30 23 25 74 30° 5 - 30.49 30.49 10 OVC015 None
2018-01-16 00:54 30 23 25 74 40° 5 - 30.50 30.50 10 OVC013 6-hr Min Temp (1am): 30.0°F
6-hr Max Temp (1am): 30.9°F
2018-01-16 00:23 30 23 25 74 50° 5 - 30.49 - 10 OVC014 None
2018-01-15 23:54 30 23 23 74 40° 7 - 30.50 30.50 10 OVC015 24-hr Min Temp (12am): 16.0°F
24-hr Max Temp (12am): 35.1°F
2018-01-15 22:54 30 23 23 74 50° 7 - 30.50 30.50 10 OVC016 None
2018-01-15 21:54 31 22 24 68 70° 7 - 30.52 30.52 10 OVC017 None
2018-01-15 20:54 30 22 21 71 60° 10 - 30.51 30.52 10 OVC018 None
2018-01-15 19:54 31 22 23 68 80° 8 - 30.52 30.53 10 OVC019 None
2018-01-15 18:54 31 22 23 68 100° 8 - 30.53 30.54 10 OVC019 6-hr Min Temp (7pm): 30.9°F
6-hr Max Temp (7pm): 35.1°F
2018-01-15 18:24 31 22 22 68 100° 10 - 30.53 - 10 BKN022 OVC049 None
2018-01-15 17:54 32 22 26 65 90° 7 - 30.53 30.53 10 SCT023 OVC049 None
2018-01-15 17:47 32 22 24 65 90° 9 - 30.52 - 10 SCT023 OVC049 None
2018-01-15 16:54 32 21 25 63 80° 8 - 30.53 30.53 10 BKN025 OVC050 None
2018-01-15 15:54 33 21 26 60 70° 8 - 30.51 30.52 10 SCT024 OVC050 None
2018-01-15 15:45 33 21 25 60 50° 10 - 30.51 - 10 SCT024 OVC050 None
2018-01-15 14:54 33 22 24 63 80° 12 - 30.51 30.51 10 OVC023 None
2018-01-15 13:54 34 21 25 58 60° 12 - 30.52 30.53 10 OVC025 None
2018-01-15 13:43 34 20 26 55 80° 10 - 30.52 - 10 BKN025 OVC048 None
2018-01-15 12:54 33 19 24 55 40° 13 - 30.54 30.55 10 OVC050 6-hr Min Temp (1pm): 18.0°F
6-hr Max Temp (1pm): 33.1°F
2018-01-15 11:54 30 17 20 58 30° 13 - 30.58 30.58 10 FEW022 OVC047 None
2018-01-15 11:45 30 17 21 58 40° 12 - 30.59 - 10 SCT022 OVC047 None
2018-01-15 10:54 27 15 17 60 50° 10 - 30.62 30.63 10 OVC019 None
2018-01-15 09:54 24 12 12 59 40° 13 - 30.64 30.65 10 OVC016 None
2018-01-15 08:54 21 9 10 58 40° 10 - 30.64 30.65 10 OVC017 None
2018-01-15 07:54 19 6 6 56 50° 13 - 30.64 30.65 10 OVC017 None
2018-01-15 06:54 18 4 5 53 40° 12 - 30.64 30.64 10 OVC016 6-hr Min Temp (7am): 16.0°F
6-hr Max Temp (7am): 18.0°F

Support USWX by starting your Amazon purchase here.